sensor_id;sensor_type;location;lat;lon;timestamp;temperature;humidity
32749;DHT22;19119;52.474;13.710;2023-04-08T00:00:52;5.60;99.90
32749;DHT22;19119;52.474;13.710;2023-04-08T00:03:18;5.60;99.90
32749;DHT22;19119;52.474;13.710;2023-04-08T00:05:44;5.50;99.90
32749;DHT22;19119;52.474;13.710;2023-04-08T00:08:10;5.50;99.90
32749;DHT22;19119;52.474;13.710;2023-04-08T00:10:35;5.50;99.90
32749;DHT22;19119;52.474;13.710;2023-04-08T00:13:01;5.60;99.90
32749;DHT22;19119;52.474;13.710;2023-04-08T00:15:26;5.60;99.90
32749;DHT22;19119;52.474;13.710;2023-04-08T00:17:52;5.50;99.90
32749;DHT22;19119;52.474;13.710;2023-04-08T00:20:22;5.60;99.90
32749;DHT22;19119;52.474;13.710;2023-04-08T00:22:48;5.60;99.90
32749;DHT22;19119;52.474;13.710;2023-04-08T00:25:13;5.70;99.90
32749;DHT22;19119;52.474;13.710;2023-04-08T00:27:39;5.70;99.90
32749;DHT22;19119;52.474;13.710;2023-04-08T00:30:05;5.70;99.90
32749;DHT22;19119;52.474;13.710;2023-04-08T00:32:31;5.70;99.90
32749;DHT22;19119;52.474;13.710;2023-04-08T00:34:57;5.60;99.90
32749;DHT22;19119;52.474;13.710;2023-04-08T00:37:23;5.70;99.90
32749;DHT22;19119;52.474;13.710;2023-04-08T00:39:49;5.70;99.90
32749;DHT22;19119;52.474;13.710;2023-04-08T00:42:16;5.60;99.90
32749;DHT22;19119;52.474;13.710;2023-04-08T00:44:41;5.60;99.90
32749;DHT22;19119;52.474;13.710;2023-04-08T00:47:11;5.60;99.90
32749;DHT22;19119;52.474;13.710;2023-04-08T00:49:37;5.50;99.90
32749;DHT22;19119;52.474;13.710;2023-04-08T00:52:02;5.50;99.90
32749;DHT22;19119;52.474;13.710;2023-04-08T00:54:29;5.50;99.90
32749;DHT22;19119;52.474;13.710;2023-04-08T00:56:56;5.50;99.90
32749;DHT22;19119;52.474;13.710;2023-04-08T00:59:21;5.60;99.90
32749;DHT22;19119;52.474;13.710;2023-04-08T01:01:58;5.70;99.90
32749;DHT22;19119;52.474;13.710;2023-04-08T01:05:06;5.70;99.90
32749;DHT22;19119;52.474;13.710;2023-04-08T01:07:36;5.70;99.90
32749;DHT22;19119;52.474;13.710;2023-04-08T01:10:09;5.60;99.90
32749;DHT22;19119;52.474;13.710;2023-04-08T01:12:40;5.60;99.90
32749;DHT22;19119;52.474;13.710;2023-04-08T01:15:10;5.60;99.90
32749;DHT22;19119;52.474;13.710;2023-04-08T01:17:36;5.60;99.90
32749;DHT22;19119;52.474;13.710;2023-04-08T01:20:03;5.70;99.90
32749;DHT22;19119;52.474;13.710;2023-04-08T01:25:37;5.70;99.90
32749;DHT22;19119;52.474;13.710;2023-04-08T01:28:08;5.80;99.90
32749;DHT22;19119;52.474;13.710;2023-04-08T01:30:34;5.80;99.90
32749;DHT22;19119;52.474;13.710;2023-04-08T01:33:02;6.10;99.90
32749;DHT22;19119;52.474;13.710;2023-04-08T01:35:30;5.80;99.90
32749;DHT22;19119;52.474;13.710;2023-04-08T01:37:56;5.70;99.90
32749;DHT22;19119;52.474;13.710;2023-04-08T01:40:22;5.70;99.90
32749;DHT22;19119;52.474;13.710;2023-04-08T01:42:49;6.00;99.90
32749;DHT22;19119;52.474;13.710;2023-04-08T01:45:16;5.60;99.90
32749;DHT22;19119;52.474;13.710;2023-04-08T01:47:44;5.60;99.90
32749;DHT22;19119;52.474;13.710;2023-04-08T01:50:11;5.90;99.90
32749;DHT22;19119;52.474;13.710;2023-04-08T01:52:38;5.70;99.90
32749;DHT22;19119;52.474;13.710;2023-04-08T01:55:05;5.90;99.90
32749;DHT22;19119;52.474;13.710;2023-04-08T01:57:32;5.70;99.90
32749;DHT22;19119;52.474;13.710;2023-04-08T02:00:00;5.80;99.90
32749;DHT22;19119;52.474;13.710;2023-04-08T02:02:29;6.00;99.90
32749;DHT22;19119;52.474;13.710;2023-04-08T02:04:59;5.80;99.90
32749;DHT22;19119;52.474;13.710;2023-04-08T02:07:24;5.70;99.90
32749;DHT22;19119;52.474;13.710;2023-04-08T02:09:50;5.70;99.90
32749;DHT22;19119;52.474;13.710;2023-04-08T02:12:16;5.80;99.90
32749;DHT22;19119;52.474;13.710;2023-04-08T02:14:41;5.80;99.90
32749;DHT22;19119;52.474;13.710;2023-04-08T02:20:05;5.80;99.90
32749;DHT22;19119;52.474;13.710;2023-04-08T02:22:38;6.50;99.90
32749;DHT22;19119;52.474;13.710;2023-04-08T02:25:13;6.50;99.90
32749;DHT22;19119;52.474;13.710;2023-04-08T02:27:43;5.80;99.90
32749;DHT22;19119;52.474;13.710;2023-04-08T02:30:11;6.00;99.90
32749;DHT22;19119;52.474;13.710;2023-04-08T02:32:37;6.00;99.90
32749;DHT22;19119;52.474;13.710;2023-04-08T02:35:04;5.90;99.90
32749;DHT22;19119;52.474;13.710;2023-04-08T02:37:30;5.90;99.90
32749;DHT22;19119;52.474;13.710;2023-04-08T02:39:56;6.00;99.90
32749;DHT22;19119;52.474;13.710;2023-04-08T02:42:24;6.00;99.90
32749;DHT22;19119;52.474;13.710;2023-04-08T02:44:50;6.00;99.90
32749;DHT22;19119;52.474;13.710;2023-04-08T02:47:18;5.90;99.90
32749;DHT22;19119;52.474;13.710;2023-04-08T02:49:44;6.00;99.90
32749;DHT22;19119;52.474;13.710;2023-04-08T02:52:09;5.90;99.90
32749;DHT22;19119;52.474;13.710;2023-04-08T02:54:35;5.90;99.90
32749;DHT22;19119;52.474;13.710;2023-04-08T02:57:01;6.20;99.90
32749;DHT22;19119;52.474;13.710;2023-04-08T02:59:26;6.10;99.90
32749;DHT22;19119;52.474;13.710;2023-04-08T03:01:54;5.90;99.90
32749;DHT22;19119;52.474;13.710;2023-04-08T03:04:19;6.00;99.90
32749;DHT22;19119;52.474;13.710;2023-04-08T03:06:45;6.20;99.90
32749;DHT22;19119;52.474;13.710;2023-04-08T03:09:11;5.90;99.90
32749;DHT22;19119;52.474;13.710;2023-04-08T03:11:36;5.90;99.90
32749;DHT22;19119;52.474;13.710;2023-04-08T03:14:02;5.80;99.90
32749;DHT22;19119;52.474;13.710;2023-04-08T03:16:27;5.80;99.90
32749;DHT22;19119;52.474;13.710;2023-04-08T03:18:53;5.90;99.90
32749;DHT22;19119;52.474;13.710;2023-04-08T03:21:18;6.00;99.90
32749;DHT22;19119;52.474;13.710;2023-04-08T03:23:44;6.00;99.90
32749;DHT22;19119;52.474;13.710;2023-04-08T03:26:10;6.00;99.90
32749;DHT22;19119;52.474;13.710;2023-04-08T03:28:36;5.90;99.90
32749;DHT22;19119;52.474;13.710;2023-04-08T03:31:04;6.10;99.90
32749;DHT22;19119;52.474;13.710;2023-04-08T03:33:30;5.90;99.90
32749;DHT22;19119;52.474;13.710;2023-04-08T03:35:56;6.20;99.90
32749;DHT22;19119;52.474;13.710;2023-04-08T03:38:21;5.90;99.90
32749;DHT22;19119;52.474;13.710;2023-04-08T03:40:47;6.00;99.90
32749;DHT22;19119;52.474;13.710;2023-04-08T03:43:13;6.20;99.90
32749;DHT22;19119;52.474;13.710;2023-04-08T03:45:39;6.10;99.90
32749;DHT22;19119;52.474;13.710;2023-04-08T03:48:07;6.20;99.90
32749;DHT22;19119;52.474;13.710;2023-04-08T03:50:33;6.20;99.90
32749;DHT22;19119;52.474;13.710;2023-04-08T03:52:58;6.10;99.90
32749;DHT22;19119;52.474;13.710;2023-04-08T03:55:24;6.20;99.90
32749;DHT22;19119;52.474;13.710;2023-04-08T03:57:49;6.00;99.90
32749;DHT22;19119;52.474;13.710;2023-04-08T04:00:15;6.20;99.90
32749;DHT22;19119;52.474;13.710;2023-04-08T04:02:43;6.00;99.90
32749;DHT22;19119;52.474;13.710;2023-04-08T04:05:12;6.10;99.90
32749;DHT22;19119;52.474;13.710;2023-04-08T04:07:41;6.00;99.90
32749;DHT22;19119;52.474;13.710;2023-04-08T04:10:09;6.10;99.90
32749;DHT22;19119;52.474;13.710;2023-04-08T04:12:35;6.10;99.90
32749;DHT22;19119;52.474;13.710;2023-04-08T04:15:00;6.00;99.90
32749;DHT22;19119;52.474;13.710;2023-04-08T04:17:26;6.00;99.90
32749;DHT22;19119;52.474;13.710;2023-04-08T04:19:51;6.10;99.90
32749;DHT22;19119;52.474;13.710;2023-04-08T04:22:17;6.10;99.90
32749;DHT22;19119;52.474;13.710;2023-04-08T04:24:46;6.10;99.90
32749;DHT22;19119;52.474;13.710;2023-04-08T04:27:12;6.20;99.90
32749;DHT22;19119;52.474;13.710;2023-04-08T04:29:38;6.50;99.90
32749;DHT22;19119;52.474;13.710;2023-04-08T04:32:03;5.90;99.90
32749;DHT22;19119;52.474;13.710;2023-04-08T04:34:29;6.10;99.90
32749;DHT22;19119;52.474;13.710;2023-04-08T04:36:54;6.10;99.90
32749;DHT22;19119;52.474;13.710;2023-04-08T04:39:20;6.10;99.90
32749;DHT22;19119;52.474;13.710;2023-04-08T04:41:46;5.90;99.90
32749;DHT22;19119;52.474;13.710;2023-04-08T04:44:13;6.30;99.90
32749;DHT22;19119;52.474;13.710;2023-04-08T04:46:39;6.10;99.90
32749;DHT22;19119;52.474;13.710;2023-04-08T04:49:04;6.80;99.90
32749;DHT22;19119;52.474;13.710;2023-04-08T04:51:30;6.40;99.90
32749;DHT22;19119;52.474;13.710;2023-04-08T04:53:57;6.30;99.90
32749;DHT22;19119;52.474;13.710;2023-04-08T04:56:23;6.10;99.90
32749;DHT22;19119;52.474;13.710;2023-04-08T04:58:50;6.20;99.90
32749;DHT22;19119;52.474;13.710;2023-04-08T05:01:15;6.20;99.90
32749;DHT22;19119;52.474;13.710;2023-04-08T05:03:44;6.20;99.90
32749;DHT22;19119;52.474;13.710;2023-04-08T05:06:09;6.20;99.90
32749;DHT22;19119;52.474;13.710;2023-04-08T05:08:36;6.00;99.90
32749;DHT22;19119;52.474;13.710;2023-04-08T05:11:01;6.20;99.90
32749;DHT22;19119;52.474;13.710;2023-04-08T05:13:28;5.90;99.90
32749;DHT22;19119;52.474;13.710;2023-04-08T05:15:53;6.20;99.90
32749;DHT22;19119;52.474;13.710;2023-04-08T05:18:19;6.20;99.90
32749;DHT22;19119;52.474;13.710;2023-04-08T05:20:45;6.20;99.90
32749;DHT22;19119;52.474;13.710;2023-04-08T05:23:11;6.30;99.90
32749;DHT22;19119;52.474;13.710;2023-04-08T05:25:37;6.30;99.90
32749;DHT22;19119;52.474;13.710;2023-04-08T05:28:03;6.50;99.90
32749;DHT22;19119;52.474;13.710;2023-04-08T05:30:31;6.40;99.90
32749;DHT22;19119;52.474;13.710;2023-04-08T05:32:56;6.50;99.90
32749;DHT22;19119;52.474;13.710;2023-04-08T05:35:22;6.40;99.90
32749;DHT22;19119;52.474;13.710;2023-04-08T05:37:48;6.40;99.90
32749;DHT22;19119;52.474;13.710;2023-04-08T05:40:13;6.40;99.90
32749;DHT22;19119;52.474;13.710;2023-04-08T05:42:39;6.60;99.90
32749;DHT22;19119;52.474;13.710;2023-04-08T05:45:09;6.50;99.90
32749;DHT22;19119;52.474;13.710;2023-04-08T05:47:35;6.80;99.90
32749;DHT22;19119;52.474;13.710;2023-04-08T05:50:01;6.70;99.90
32749;DHT22;19119;52.474;13.710;2023-04-08T05:52:29;6.60;99.90
32749;DHT22;19119;52.474;13.710;2023-04-08T05:54:54;6.70;99.90
32749;DHT22;19119;52.474;13.710;2023-04-08T05:57:20;6.70;99.90
32749;DHT22;19119;52.474;13.710;2023-04-08T05:59:45;6.80;99.90
32749;DHT22;19119;52.474;13.710;2023-04-08T06:02:11;6.80;99.90
32749;DHT22;19119;52.474;13.710;2023-04-08T06:04:36;6.80;99.90
32749;DHT22;19119;52.474;13.710;2023-04-08T06:07:02;6.80;99.90
32749;DHT22;19119;52.474;13.710;2023-04-08T06:09:28;6.90;99.90
32749;DHT22;19119;52.474;13.710;2023-04-08T06:12:00;7.00;99.90
32749;DHT22;19119;52.474;13.710;2023-04-08T06:14:26;6.90;99.90
32749;DHT22;19119;52.474;13.710;2023-04-08T06:17:20;7.00;99.90
32749;DHT22;19119;52.474;13.710;2023-04-08T06:19:46;7.00;99.90
32749;DHT22;19119;52.474;13.710;2023-04-08T06:22:11;7.10;99.90
32749;DHT22;19119;52.474;13.710;2023-04-08T06:24:40;7.00;99.90
32749;DHT22;19119;52.474;13.710;2023-04-08T06:27:05;7.00;99.90
32749;DHT22;19119;52.474;13.710;2023-04-08T06:29:31;7.10;99.90
32749;DHT22;19119;52.474;13.710;2023-04-08T06:31:58;6.80;99.90
32749;DHT22;19119;52.474;13.710;2023-04-08T06:34:23;6.90;99.90
32749;DHT22;19119;52.474;13.710;2023-04-08T06:36:51;7.00;99.90
32749;DHT22;19119;52.474;13.710;2023-04-08T06:39:17;7.00;99.90
32749;DHT22;19119;52.474;13.710;2023-04-08T06:41:43;7.00;99.90
32749;DHT22;19119;52.474;13.710;2023-04-08T06:44:09;7.00;99.90
32749;DHT22;19119;52.474;13.710;2023-04-08T06:46:37;7.20;99.90
32749;DHT22;19119;52.474;13.710;2023-04-08T06:49:02;7.60;99.90
32749;DHT22;19119;52.474;13.710;2023-04-08T06:51:39;7.40;99.90
32749;DHT22;19119;52.474;13.710;2023-04-08T06:54:24;7.20;99.90
32749;DHT22;19119;52.474;13.710;2023-04-08T06:57:05;7.20;99.90
32749;DHT22;19119;52.474;13.710;2023-04-08T06:59:34;7.00;99.90
32749;DHT22;19119;52.474;13.710;2023-04-08T07:02:02;7.30;99.90
32749;DHT22;19119;52.474;13.710;2023-04-08T07:04:27;7.70;99.90
32749;DHT22;19119;52.474;13.710;2023-04-08T07:06:55;7.60;99.90
32749;DHT22;19119;52.474;13.710;2023-04-08T07:09:26;7.50;99.90
32749;DHT22;19119;52.474;13.710;2023-04-08T07:11:52;7.50;99.90
32749;DHT22;19119;52.474;13.710;2023-04-08T07:14:18;7.60;99.90
32749;DHT22;19119;52.474;13.710;2023-04-08T07:16:46;7.70;99.90
32749;DHT22;19119;52.474;13.710;2023-04-08T07:19:14;7.80;99.90
32749;DHT22;19119;52.474;13.710;2023-04-08T07:21:40;7.80;99.90
32749;DHT22;19119;52.474;13.710;2023-04-08T07:24:08;8.10;99.90
32749;DHT22;19119;52.474;13.710;2023-04-08T07:26:53;7.80;99.90
32749;DHT22;19119;52.474;13.710;2023-04-08T07:32:59;7.70;99.90
32749;DHT22;19119;52.474;13.710;2023-04-08T07:35:35;8.00;99.90
32749;DHT22;19119;52.474;13.710;2023-04-08T07:38:00;7.90;99.90
32749;DHT22;19119;52.474;13.710;2023-04-08T07:40:28;8.00;99.90
32749;DHT22;19119;52.474;13.710;2023-04-08T07:42:59;7.90;99.90
32749;DHT22;19119;52.474;13.710;2023-04-08T07:45:25;7.90;99.90
32749;DHT22;19119;52.474;13.710;2023-04-08T07:51:22;8.00;99.90
32749;DHT22;19119;52.474;13.710;2023-04-08T07:53:59;8.20;99.90
32749;DHT22;19119;52.474;13.710;2023-04-08T07:56:56;8.20;99.90
32749;DHT22;19119;52.474;13.710;2023-04-08T08:23:51;8.00;99.90
32749;DHT22;19119;52.474;13.710;2023-04-08T08:26:54;8.20;99.90
32749;DHT22;19119;52.474;13.710;2023-04-08T08:29:30;8.30;99.90
32749;DHT22;19119;52.474;13.710;2023-04-08T08:31:59;8.30;99.90
32749;DHT22;19119;52.474;13.710;2023-04-08T08:34:27;8.40;99.90
32749;DHT22;19119;52.474;13.710;2023-04-08T08:36:59;8.40;99.90
32749;DHT22;19119;52.474;13.710;2023-04-08T08:39:28;8.60;99.90
32749;DHT22;19119;52.474;13.710;2023-04-08T08:41:56;8.60;99.90
32749;DHT22;19119;52.474;13.710;2023-04-08T08:44:25;8.80;99.90
32749;DHT22;19119;52.474;13.710;2023-04-08T08:46:51;9.00;99.90
32749;DHT22;19119;52.474;13.710;2023-04-08T08:49:19;9.10;99.90
32749;DHT22;19119;52.474;13.710;2023-04-08T08:51:58;9.30;99.90
32749;DHT22;19119;52.474;13.710;2023-04-08T08:54:27;9.00;99.90
32749;DHT22;19119;52.474;13.710;2023-04-08T08:57:02;8.90;99.90
32749;DHT22;19119;52.474;13.710;2023-04-08T08:59:36;9.10;99.90
32749;DHT22;19119;52.474;13.710;2023-04-08T09:02:46;9.20;99.90
32749;DHT22;19119;52.474;13.710;2023-04-08T09:07:55;9.30;99.90
32749;DHT22;19119;52.474;13.710;2023-04-08T09:10:27;9.30;99.90
32749;DHT22;19119;52.474;13.710;2023-04-08T09:12:53;9.40;99.90
32749;DHT22;19119;52.474;13.710;2023-04-08T09:15:20;9.70;99.90
32749;DHT22;19119;52.474;13.710;2023-04-08T09:17:46;9.80;99.90
32749;DHT22;19119;52.474;13.710;2023-04-08T09:20:12;9.90;99.90
32749;DHT22;19119;52.474;13.710;2023-04-08T09:23:01;10.10;99.90
32749;DHT22;19119;52.474;13.710;2023-04-08T09:25:31;10.20;99.90
32749;DHT22;19119;52.474;13.710;2023-04-08T09:27:57;9.90;99.90
32749;DHT22;19119;52.474;13.710;2023-04-08T09:30:24;9.90;99.90
32749;DHT22;19119;52.474;13.710;2023-04-08T09:32:57;9.70;99.90
32749;DHT22;19119;52.474;13.710;2023-04-08T09:35:23;9.50;99.90
32749;DHT22;19119;52.474;13.710;2023-04-08T09:37:49;9.50;99.90
32749;DHT22;19119;52.474;13.710;2023-04-08T09:40:16;9.60;99.90
32749;DHT22;19119;52.474;13.710;2023-04-08T09:42:51;9.70;99.90
32749;DHT22;19119;52.474;13.710;2023-04-08T09:45:18;9.90;99.90
32749;DHT22;19119;52.474;13.710;2023-04-08T09:48:11;10.10;99.90
32749;DHT22;19119;52.474;13.710;2023-04-08T09:50:42;10.20;99.90
32749;DHT22;19119;52.474;13.710;2023-04-08T09:53:13;10.10;99.90
32749;DHT22;19119;52.474;13.710;2023-04-08T09:55:42;10.20;99.90
32749;DHT22;19119;52.474;13.710;2023-04-08T09:58:15;10.20;99.90
32749;DHT22;19119;52.474;13.710;2023-04-08T10:00:46;10.20;99.90
32749;DHT22;19119;52.474;13.710;2023-04-08T10:05:52;10.30;99.90
32749;DHT22;19119;52.474;13.710;2023-04-08T10:08:17;10.00;99.90
32749;DHT22;19119;52.474;13.710;2023-04-08T10:10:43;9.90;99.90
32749;DHT22;19119;52.474;13.710;2023-04-08T10:13:09;9.80;99.90
32749;DHT22;19119;52.474;13.710;2023-04-08T10:15:36;9.80;99.90
32749;DHT22;19119;52.474;13.710;2023-04-08T10:23:06;10.30;99.90
32749;DHT22;19119;52.474;13.710;2023-04-08T10:25:37;10.60;99.90
32749;DHT22;19119;52.474;13.710;2023-04-08T10:28:23;10.70;99.90
32749;DHT22;19119;52.474;13.710;2023-04-08T10:30:53;10.80;99.90
32749;DHT22;19119;52.474;13.710;2023-04-08T10:36:00;10.60;99.90
32749;DHT22;19119;52.474;13.710;2023-04-08T10:38:36;10.60;99.90
32749;DHT22;19119;52.474;13.710;2023-04-08T10:41:01;10.60;99.90
32749;DHT22;19119;52.474;13.710;2023-04-08T10:43:31;10.60;99.90
32749;DHT22;19119;52.474;13.710;2023-04-08T10:45:57;10.80;99.90
32749;DHT22;19119;52.474;13.710;2023-04-08T10:48:24;10.70;99.90
32749;DHT22;19119;52.474;13.710;2023-04-08T10:50:57;10.70;99.90
32749;DHT22;19119;52.474;13.710;2023-04-08T10:55:53;10.80;99.90
32749;DHT22;19119;52.474;13.710;2023-04-08T10:58:19;10.80;99.90
32749;DHT22;19119;52.474;13.710;2023-04-08T11:00:45;10.90;99.90
32749;DHT22;19119;52.474;13.710;2023-04-08T11:03:11;10.90;99.90
32749;DHT22;19119;52.474;13.710;2023-04-08T11:05:37;10.90;99.90
32749;DHT22;19119;52.474;13.710;2023-04-08T11:08:04;11.10;99.90
32749;DHT22;19119;52.474;13.710;2023-04-08T11:10:30;11.70;99.90
32749;DHT22;19119;52.474;13.710;2023-04-08T11:13:00;12.00;99.90
32749;DHT22;19119;52.474;13.710;2023-04-08T11:15:28;12.10;99.90
32749;DHT22;19119;52.474;13.710;2023-04-08T11:17:54;12.00;99.90
32749;DHT22;19119;52.474;13.710;2023-04-08T11:20:20;11.90;99.90
32749;DHT22;19119;52.474;13.710;2023-04-08T11:22:47;11.60;99.90
32749;DHT22;19119;52.474;13.710;2023-04-08T11:25:13;11.30;99.90
32749;DHT22;19119;52.474;13.710;2023-04-08T11:27:38;11.20;99.90
32749;DHT22;19119;52.474;13.710;2023-04-08T11:30:07;11.20;99.90
32749;DHT22;19119;52.474;13.710;2023-04-08T11:32:34;11.20;99.90
32749;DHT22;19119;52.474;13.710;2023-04-08T11:35:00;11.30;99.90
32749;DHT22;19119;52.474;13.710;2023-04-08T11:37:38;11.80;99.90
32749;DHT22;19119;52.474;13.710;2023-04-08T11:40:09;12.30;99.90
32749;DHT22;19119;52.474;13.710;2023-04-08T11:42:36;12.60;99.90
32749;DHT22;19119;52.474;13.710;2023-04-08T11:45:09;12.50;99.90
32749;DHT22;19119;52.474;13.710;2023-04-08T11:47:35;12.60;99.90
32749;DHT22;19119;52.474;13.710;2023-04-08T11:50:02;13.30;99.90
32749;DHT22;19119;52.474;13.710;2023-04-08T11:52:45;13.70;99.90
32749;DHT22;19119;52.474;13.710;2023-04-08T11:55:20;13.50;99.90
32749;DHT22;19119;52.474;13.710;2023-04-08T11:57:46;12.90;99.90
32749;DHT22;19119;52.474;13.710;2023-04-08T12:00:13;12.40;99.90
32749;DHT22;19119;52.474;13.710;2023-04-08T12:02:39;12.10;99.90
32749;DHT22;19119;52.474;13.710;2023-04-08T12:05:05;11.90;99.90
32749;DHT22;19119;52.474;13.710;2023-04-08T12:07:31;11.80;99.90
32749;DHT22;19119;52.474;13.710;2023-04-08T12:09:56;12.40;99.90
32749;DHT22;19119;52.474;13.710;2023-04-08T12:12:22;13.20;99.90
32749;DHT22;19119;52.474;13.710;2023-04-08T12:14:48;13.30;99.90
32749;DHT22;19119;52.474;13.710;2023-04-08T12:17:14;13.20;99.90
32749;DHT22;19119;52.474;13.710;2023-04-08T12:19:39;13.60;99.90
32749;DHT22;19119;52.474;13.710;2023-04-08T12:22:05;13.50;99.90
32749;DHT22;19119;52.474;13.710;2023-04-08T12:24:31;13.20;99.90
32749;DHT22;19119;52.474;13.710;2023-04-08T12:26:56;12.90;99.90
32749;DHT22;19119;52.474;13.710;2023-04-08T12:29:22;12.70;99.90
32749;DHT22;19119;52.474;13.710;2023-04-08T12:31:48;12.40;99.90
32749;DHT22;19119;52.474;13.710;2023-04-08T12:34:13;12.70;99.90
32749;DHT22;19119;52.474;13.710;2023-04-08T12:36:39;13.00;99.90
32749;DHT22;19119;52.474;13.710;2023-04-08T12:39:06;13.00;99.90
32749;DHT22;19119;52.474;13.710;2023-04-08T12:41:31;13.50;99.90
32749;DHT22;19119;52.474;13.710;2023-04-08T12:43:57;13.50;99.90
32749;DHT22;19119;52.474;13.710;2023-04-08T12:46:23;13.90;99.90
32749;DHT22;19119;52.474;13.710;2023-04-08T12:48:48;14.30;99.90
32749;DHT22;19119;52.474;13.710;2023-04-08T12:51:14;15.00;99.90
32749;DHT22;19119;52.474;13.710;2023-04-08T12:53:40;14.80;99.90
32749;DHT22;19119;52.474;13.710;2023-04-08T12:56:05;15.10;99.90
32749;DHT22;19119;52.474;13.710;2023-04-08T12:58:31;15.10;99.90
32749;DHT22;19119;52.474;13.710;2023-04-08T13:00:56;15.20;99.90
32749;DHT22;19119;52.474;13.710;2023-04-08T13:03:22;14.50;99.90
32749;DHT22;19119;52.474;13.710;2023-04-08T13:05:48;14.70;99.90
32749;DHT22;19119;52.474;13.710;2023-04-08T13:08:13;15.00;99.90
32749;DHT22;19119;52.474;13.710;2023-04-08T13:10:41;15.20;99.90
32749;DHT22;19119;52.474;13.710;2023-04-08T13:13:09;15.40;99.90
32749;DHT22;19119;52.474;13.710;2023-04-08T13:15:38;15.80;99.90
32749;DHT22;19119;52.474;13.710;2023-04-08T13:18:04;16.10;99.90
32749;DHT22;19119;52.474;13.710;2023-04-08T13:20:29;16.10;99.90
32749;DHT22;19119;52.474;13.710;2023-04-08T13:22:55;16.10;99.90
32749;DHT22;19119;52.474;13.710;2023-04-08T13:25:20;16.20;99.90
32749;DHT22;19119;52.474;13.710;2023-04-08T13:27:46;16.10;99.90
32749;DHT22;19119;52.474;13.710;2023-04-08T13:30:12;15.10;99.90
32749;DHT22;19119;52.474;13.710;2023-04-08T13:32:37;14.70;99.90
32749;DHT22;19119;52.474;13.710;2023-04-08T13:35:03;14.60;99.90
32749;DHT22;19119;52.474;13.710;2023-04-08T13:37:29;15.20;99.90
32749;DHT22;19119;52.474;13.710;2023-04-08T13:39:54;15.60;99.90
32749;DHT22;19119;52.474;13.710;2023-04-08T13:42:21;16.10;99.90
32749;DHT22;19119;52.474;13.710;2023-04-08T13:44:46;16.30;99.90
32749;DHT22;19119;52.474;13.710;2023-04-08T13:47:12;16.50;99.90
32749;DHT22;19119;52.474;13.710;2023-04-08T13:49:37;15.70;99.90
32749;DHT22;19119;52.474;13.710;2023-04-08T13:52:03;15.50;99.90
32749;DHT22;19119;52.474;13.710;2023-04-08T13:54:28;15.50;99.90
32749;DHT22;19119;52.474;13.710;2023-04-08T13:56:54;14.70;99.90
32749;DHT22;19119;52.474;13.710;2023-04-08T13:59:23;14.50;99.90
32749;DHT22;19119;52.474;13.710;2023-04-08T14:01:48;14.20;99.90
32749;DHT22;19119;52.474;13.710;2023-04-08T14:04:18;14.00;99.90
32749;DHT22;19119;52.474;13.710;2023-04-08T14:06:45;13.70;99.90
32749;DHT22;19119;52.474;13.710;2023-04-08T14:09:10;14.10;99.90
32749;DHT22;19119;52.474;13.710;2023-04-08T14:11:36;14.00;99.90
32749;DHT22;19119;52.474;13.710;2023-04-08T14:14:02;14.10;99.90
32749;DHT22;19119;52.474;13.710;2023-04-08T14:16:27;14.20;99.90
32749;DHT22;19119;52.474;13.710;2023-04-08T14:18:55;14.10;99.90
32749;DHT22;19119;52.474;13.710;2023-04-08T14:21:21;14.60;99.90
32749;DHT22;19119;52.474;13.710;2023-04-08T14:23:47;14.90;99.90
32749;DHT22;19119;52.474;13.710;2023-04-08T14:26:12;15.20;99.90
32749;DHT22;19119;52.474;13.710;2023-04-08T14:28:38;15.00;99.90
32749;DHT22;19119;52.474;13.710;2023-04-08T14:31:04;14.70;99.90
32749;DHT22;19119;52.474;13.710;2023-04-08T14:33:30;14.60;99.90
32749;DHT22;19119;52.474;13.710;2023-04-08T14:35:56;14.70;99.90
32749;DHT22;19119;52.474;13.710;2023-04-08T14:38:23;14.60;99.90
32749;DHT22;19119;52.474;13.710;2023-04-08T14:40:49;14.80;99.90
32749;DHT22;19119;52.474;13.710;2023-04-08T14:43:15;14.80;99.90
32749;DHT22;19119;52.474;13.710;2023-04-08T14:45:40;14.60;99.90
32749;DHT22;19119;52.474;13.710;2023-04-08T14:48:06;14.60;99.90
32749;DHT22;19119;52.474;13.710;2023-04-08T14:50:32;14.70;99.90
32749;DHT22;19119;52.474;13.710;2023-04-08T14:52:57;14.60;99.90
32749;DHT22;19119;52.474;13.710;2023-04-08T14:55:23;14.40;99.90
32749;DHT22;19119;52.474;13.710;2023-04-08T14:57:49;14.50;99.90
32749;DHT22;19119;52.474;13.710;2023-04-08T15:00:15;14.30;99.90
32749;DHT22;19119;52.474;13.710;2023-04-08T15:02:40;14.40;99.90
32749;DHT22;19119;52.474;13.710;2023-04-08T15:05:06;14.50;99.90
32749;DHT22;19119;52.474;13.710;2023-04-08T15:07:32;14.70;99.90
32749;DHT22;19119;52.474;13.710;2023-04-08T15:09:58;14.70;99.90
32749;DHT22;19119;52.474;13.710;2023-04-08T15:12:24;14.20;99.90
32749;DHT22;19119;52.474;13.710;2023-04-08T15:14:50;14.40;99.90
32749;DHT22;19119;52.474;13.710;2023-04-08T15:17:15;14.30;99.90
32749;DHT22;19119;52.474;13.710;2023-04-08T15:19:41;14.20;99.90
32749;DHT22;19119;52.474;13.710;2023-04-08T15:22:06;14.30;99.90
32749;DHT22;19119;52.474;13.710;2023-04-08T15:24:32;14.40;99.90
32749;DHT22;19119;52.474;13.710;2023-04-08T15:26:57;14.50;99.90
32749;DHT22;19119;52.474;13.710;2023-04-08T15:29:26;14.80;99.90
32749;DHT22;19119;52.474;13.710;2023-04-08T15:31:51;14.70;99.90
32749;DHT22;19119;52.474;13.710;2023-04-08T15:34:17;14.70;99.90
32749;DHT22;19119;52.474;13.710;2023-04-08T15:36:43;14.30;99.90
32749;DHT22;19119;52.474;13.710;2023-04-08T15:39:12;14.20;99.90
32749;DHT22;19119;52.474;13.710;2023-04-08T15:41:37;14.00;99.90
32749;DHT22;19119;52.474;13.710;2023-04-08T15:44:03;13.90;99.90
32749;DHT22;19119;52.474;13.710;2023-04-08T15:46:29;13.90;99.90
32749;DHT22;19119;52.474;13.710;2023-04-08T15:48:54;13.90;99.90
32749;DHT22;19119;52.474;13.710;2023-04-08T15:51:20;13.70;99.90
32749;DHT22;19119;52.474;13.710;2023-04-08T15:53:45;13.40;99.90
32749;DHT22;19119;52.474;13.710;2023-04-08T15:56:14;13.60;99.90
32749;DHT22;19119;52.474;13.710;2023-04-08T15:58:41;13.60;99.90
32749;DHT22;19119;52.474;13.710;2023-04-08T16:01:07;13.40;99.90
32749;DHT22;19119;52.474;13.710;2023-04-08T16:03:32;13.40;99.90
32749;DHT22;19119;52.474;13.710;2023-04-08T16:05:58;13.20;99.90
32749;DHT22;19119;52.474;13.710;2023-04-08T16:08:23;13.10;99.90
32749;DHT22;19119;52.474;13.710;2023-04-08T16:10:49;13.00;99.90
32749;DHT22;19119;52.474;13.710;2023-04-08T16:13:15;12.90;99.90
32749;DHT22;19119;52.474;13.710;2023-04-08T16:15:41;12.80;99.90
32749;DHT22;19119;52.474;13.710;2023-04-08T16:18:07;12.70;99.90
32749;DHT22;19119;52.474;13.710;2023-04-08T16:20:36;12.70;99.90